createdAt,value
2023-05-25T00:02:05.301Z,18.93
2023-05-25T00:04:34.671Z,18.14
2023-05-25T00:07:02.051Z,19.61
2023-05-25T00:09:29.362Z,17.31
2023-05-25T00:11:58.276Z,19.54
2023-05-25T00:14:25.565Z,20.87
2023-05-25T00:16:53.424Z,20.76
2023-05-25T00:19:21.101Z,19.92
2023-05-25T00:21:48.734Z,21.61
2023-05-25T00:24:16.071Z,21.65
2023-05-25T00:26:43.947Z,21.10
2023-05-25T00:29:12.648Z,21.55
2023-05-25T00:31:40.111Z,21.61
2023-05-25T00:34:08.460Z,19.93
2023-05-25T00:36:35.679Z,19.58
2023-05-25T00:39:03.967Z,18.29
2023-05-25T00:41:31.635Z,17.97
2023-05-25T00:43:59.011Z,18.73
2023-05-25T00:46:26.271Z,18.75
2023-05-25T00:48:54.894Z,18.73
2023-05-25T00:51:22.852Z,18.65
2023-05-25T00:53:50.220Z,18.23
2023-05-25T00:56:24.508Z,17.33
2023-05-25T00:58:53.094Z,17.58
2023-05-25T01:01:21.178Z,17.19
2023-05-25T01:03:54.024Z,18.26
2023-05-25T01:06:22.988Z,20.74
2023-05-25T01:08:51.911Z,19.95
2023-05-25T01:11:20.144Z,19.73
2023-05-25T01:13:48.367Z,19.66
2023-05-25T01:16:16.698Z,20.21
2023-05-25T01:18:44.045Z,18.22
2023-05-25T01:21:18.213Z,17.78
2023-05-25T01:24:04.190Z,16.83
2023-05-25T01:26:32.538Z,18.60
2023-05-25T01:28:59.767Z,18.69
2023-05-25T01:31:27.049Z,17.47
2023-05-25T01:33:54.701Z,17.65
2023-05-25T01:36:22.081Z,17.32
2023-05-25T01:38:49.867Z,17.96
2023-05-25T01:41:17.581Z,17.54
2023-05-25T01:43:45.170Z,18.89
2023-05-25T01:46:16.086Z,18.10
2023-05-25T01:48:44.074Z,18.17
2023-05-25T01:51:14.759Z,17.46
2023-05-25T01:53:53.722Z,18.57
2023-05-25T01:56:21.825Z,17.97
2023-05-25T01:58:49.151Z,17.87
2023-05-25T02:01:16.406Z,17.31
2023-05-25T02:03:45.184Z,17.04
2023-05-25T02:06:12.911Z,17.24
2023-05-25T02:08:40.114Z,17.06
2023-05-25T02:11:07.870Z,16.48
2023-05-25T02:13:35.264Z,17.41
2023-05-25T02:16:03.417Z,17.58
2023-05-25T02:18:31.458Z,17.61
2023-05-25T02:20:59.020Z,20.50
2023-05-25T02:23:26.400Z,18.81
2023-05-25T02:25:54.032Z,17.79
2023-05-25T02:28:23.638Z,20.10
2023-05-25T02:30:51.200Z,18.47
2023-05-25T02:33:18.990Z,18.03
2023-05-25T02:35:47.078Z,17.81
2023-05-25T02:38:14.427Z,19.27
2023-05-25T02:40:41.898Z,18.37
2023-05-25T02:43:09.971Z,21.03
2023-05-25T02:45:37.335Z,20.23
2023-05-25T02:48:04.631Z,19.91
2023-05-25T02:50:32.601Z,18.11
2023-05-25T02:53:00.644Z,18.26
2023-05-25T02:55:28.241Z,18.57
2023-05-25T02:57:56.384Z,18.23
2023-05-25T03:00:25.904Z,18.31
2023-05-25T03:02:53.629Z,19.16
2023-05-25T03:05:22.249Z,20.93
2023-05-25T03:07:49.543Z,22.24
2023-05-25T03:10:16.745Z,21.61
2023-05-25T03:12:44.770Z,22.63
2023-05-25T03:15:14.016Z,22.18
2023-05-25T03:17:41.661Z,22.36
2023-05-25T03:20:10.640Z,21.88
2023-05-25T03:22:39.546Z,21.54
2023-05-25T03:25:07.151Z,21.64
2023-05-25T03:27:34.842Z,21.17
2023-05-25T03:30:02.237Z,21.53
2023-05-25T03:32:30.684Z,22.01
2023-05-25T03:34:58.194Z,21.86
2023-05-25T03:37:25.711Z,21.52
2023-05-25T03:39:52.848Z,20.94
2023-05-25T03:42:20.683Z,21.24
2023-05-25T03:44:48.627Z,21.05
2023-05-25T03:47:16.262Z,20.83
2023-05-25T03:49:43.742Z,18.18
2023-05-25T03:52:11.073Z,19.76
2023-05-25T03:54:38.227Z,19.89
2023-05-25T03:57:06.274Z,20.81
2023-05-25T03:59:33.458Z,20.67
2023-05-25T04:02:00.836Z,19.99
2023-05-25T04:04:29.955Z,20.37
2023-05-25T04:06:57.177Z,20.76
2023-05-25T04:09:24.419Z,21.06
2023-05-25T04:11:52.155Z,18.12
2023-05-25T04:14:21.655Z,20.64
2023-05-25T04:16:49.356Z,21.08
2023-05-25T04:19:17.199Z,21.39
2023-05-25T04:21:44.611Z,21.08
2023-05-25T04:24:11.988Z,18.71
2023-05-25T04:26:40.377Z,19.63
2023-05-25T04:29:09.923Z,20.49
2023-05-25T04:31:40.374Z,18.10
2023-05-25T04:34:09.726Z,18.56
2023-05-25T04:36:43.208Z,20.44
2023-05-25T04:39:13.038Z,20.90
2023-05-25T04:41:40.783Z,20.59
2023-05-25T04:44:10.132Z,20.34
2023-05-25T04:46:39.156Z,20.53
2023-05-25T04:49:08.630Z,20.18
2023-05-25T04:51:37.234Z,19.30
2023-05-25T04:54:05.095Z,19.90
2023-05-25T04:56:33.051Z,19.54
2023-05-25T04:59:00.619Z,18.49
2023-05-25T05:01:29.326Z,19.83
2023-05-25T05:03:56.926Z,19.60
2023-05-25T05:06:25.837Z,19.56
2023-05-25T05:08:53.560Z,19.03
2023-05-25T05:11:21.729Z,18.07
2023-05-25T05:13:49.330Z,19.77
2023-05-25T05:16:17.396Z,20.31
2023-05-25T05:18:44.881Z,19.77
2023-05-25T05:21:12.251Z,18.11
2023-05-25T05:23:39.992Z,18.24
2023-05-25T05:26:11.075Z,19.26
2023-05-25T05:28:38.502Z,19.12
2023-05-25T05:31:06.868Z,18.91
2023-05-25T05:33:34.874Z,19.56
2023-05-25T05:36:03.806Z,19.31
2023-05-25T05:38:31.832Z,18.31
2023-05-25T05:40:59.121Z,19.50
2023-05-25T05:43:26.520Z,20.09
2023-05-25T05:45:54.064Z,20.30
2023-05-25T05:48:21.300Z,20.26
2023-05-25T05:50:52.517Z,19.72
2023-05-25T05:53:20.994Z,20.98
2023-05-25T05:55:51.254Z,21.42
2023-05-25T05:58:20.573Z,18.20
2023-05-25T06:00:47.974Z,19.34
2023-05-25T06:03:15.706Z,20.30
2023-05-25T06:05:43.408Z,20.37
2023-05-25T06:08:11.932Z,20.30
2023-05-25T06:10:39.763Z,19.69
2023-05-25T06:13:10.137Z,20.95
2023-05-25T06:15:37.482Z,21.02
2023-05-25T06:18:06.307Z,20.70
2023-05-25T06:20:35.341Z,21.69
2023-05-25T06:23:03.091Z,20.78
2023-05-25T06:25:31.074Z,20.93
2023-05-25T06:27:58.749Z,20.08
2023-05-25T06:30:27.076Z,20.44
2023-05-25T06:32:55.013Z,21.51
2023-05-25T06:35:23.451Z,22.04
2023-05-25T06:37:50.948Z,18.89
2023-05-25T06:40:21.165Z,21.29
2023-05-25T06:42:48.484Z,21.02
2023-05-25T06:45:24.190Z,19.95
2023-05-25T06:47:51.547Z,20.43
2023-05-25T06:50:19.126Z,21.26
2023-05-25T06:52:46.927Z,21.43
2023-05-25T06:55:14.143Z,21.38
2023-05-25T06:57:41.400Z,21.79
2023-05-25T07:00:12.185Z,19.08
2023-05-25T07:02:39.609Z,20.47
2023-05-25T07:05:07.907Z,20.86
2023-05-25T07:07:35.607Z,22.10
2023-05-25T07:10:03.595Z,21.99
2023-05-25T07:12:31.567Z,19.81
2023-05-25T07:14:59.164Z,20.97
2023-05-25T07:17:26.694Z,22.71
2023-05-25T07:19:54.475Z,21.48
2023-05-25T07:22:23.710Z,21.95
2023-05-25T07:24:51.204Z,23.82
2023-05-25T07:27:19.721Z,23.26
2023-05-25T07:29:47.603Z,25.27
2023-05-25T07:32:15.050Z,25.80
2023-05-25T07:34:42.586Z,26.79
2023-05-25T07:37:10.143Z,25.11
2023-05-25T07:39:37.479Z,25.60
2023-05-25T07:42:04.891Z,25.17
2023-05-25T07:44:32.452Z,27.41
2023-05-25T07:46:59.897Z,26.41
2023-05-25T07:49:27.294Z,25.14
2023-05-25T07:51:54.795Z,26.35
2023-05-25T07:54:22.157Z,25.05
2023-05-25T07:56:49.460Z,26.15
2023-05-25T07:59:17.085Z,25.06
2023-05-25T08:01:44.566Z,23.59
2023-05-25T08:04:12.729Z,24.32
2023-05-25T08:06:40.141Z,24.39
2023-05-25T08:09:09.184Z,26.33
2023-05-25T08:11:37.259Z,25.19
2023-05-25T08:14:04.489Z,24.86
2023-05-25T08:16:31.814Z,26.64
2023-05-25T08:19:01.976Z,28.11
2023-05-25T08:21:29.350Z,27.03
2023-05-25T08:23:56.795Z,24.31
2023-05-25T08:26:41.426Z,25.36
2023-05-25T08:29:11.680Z,27.44
2023-05-25T08:31:39.323Z,27.95
2023-05-25T08:34:06.826Z,25.77
2023-05-25T08:36:35.975Z,25.72
2023-05-25T08:39:04.684Z,24.78
2023-05-25T08:41:32.366Z,25.90
2023-05-25T08:44:06.157Z,25.65
2023-05-25T08:46:33.769Z,26.39
2023-05-25T08:49:13.981Z,26.88
2023-05-25T08:51:48.029Z,24.31
2023-05-25T08:54:17.352Z,26.48
2023-05-25T08:56:48.428Z,24.31
2023-05-25T08:59:18.242Z,26.34
2023-05-25T09:01:46.759Z,25.07
2023-05-25T09:04:14.695Z,23.57
2023-05-25T09:06:42.487Z,26.54
2023-05-25T09:09:10.717Z,27.35
2023-05-25T09:11:41.622Z,27.40
2023-05-25T09:14:10.986Z,28.05
2023-05-25T09:16:38.583Z,25.27
2023-05-25T09:19:06.107Z,26.18
2023-05-25T09:21:33.928Z,27.22
2023-05-25T09:24:01.710Z,28.06
2023-05-25T09:26:28.959Z,27.02
2023-05-25T09:28:56.400Z,26.57
2023-05-25T09:31:24.747Z,24.85
2023-05-25T09:33:55.645Z,27.10
2023-05-25T09:36:23.446Z,26.49
2023-05-25T09:38:53.143Z,26.29
2023-05-25T09:41:20.965Z,27.57
2023-05-25T09:46:22.584Z,27.09
2023-05-25T09:48:51.517Z,27.97
2023-05-25T09:51:19.089Z,27.05
2023-05-25T09:53:46.794Z,26.65
2023-05-25T09:56:14.194Z,28.53
2023-05-25T09:58:42.003Z,28.69
2023-05-25T10:01:09.706Z,27.76
2023-05-25T10:03:46.060Z,28.00
2023-05-25T10:06:19.436Z,26.91
2023-05-25T10:08:47.856Z,26.91
2023-05-25T10:11:15.804Z,27.11
2023-05-25T10:13:44.890Z,25.98
2023-05-25T10:16:19.442Z,26.56
2023-05-25T10:18:55.984Z,27.28
2023-05-25T10:21:23.723Z,27.62
2023-05-25T10:23:51.697Z,26.64
2023-05-25T10:26:20.119Z,28.22
2023-05-25T10:28:50.822Z,27.55
2023-05-25T10:31:18.303Z,27.85
2023-05-25T10:33:49.192Z,28.34
2023-05-25T10:36:20.093Z,27.28
2023-05-25T10:38:47.357Z,27.75
2023-05-25T10:41:15.988Z,27.18
2023-05-25T10:43:43.713Z,27.23
2023-05-25T10:46:12.711Z,28.24
2023-05-25T10:48:40.602Z,27.71
2023-05-25T10:51:10.243Z,28.74
2023-05-25T10:53:39.450Z,30.25
2023-05-25T10:56:08.733Z,30.27
2023-05-25T10:58:36.579Z,28.94
2023-05-25T11:01:07.442Z,29.28
2023-05-25T11:03:44.054Z,28.17
2023-05-25T11:06:12.426Z,29.03
2023-05-25T11:08:48.589Z,29.09
2023-05-25T11:11:16.160Z,29.37
2023-05-25T11:13:46.958Z,28.43
2023-05-25T11:16:20.774Z,28.48
2023-05-25T11:18:58.651Z,29.16
2023-05-25T11:21:30.377Z,29.27
2023-05-25T11:24:06.817Z,28.75
2023-05-25T11:26:34.436Z,28.41
2023-05-25T11:29:03.165Z,28.23
2023-05-25T11:31:37.834Z,29.23
2023-05-25T11:34:07.449Z,28.71
2023-05-25T11:36:35.713Z,27.75
2023-05-25T11:39:17.209Z,29.20
2023-05-25T11:41:51.458Z,28.15
2023-05-25T11:44:26.253Z,29.24
2023-05-25T11:46:57.319Z,28.14
2023-05-25T11:49:25.924Z,27.72
2023-05-25T11:51:54.256Z,28.18
2023-05-25T11:54:25.400Z,29.33
2023-05-25T11:56:52.932Z,28.03
2023-05-25T11:59:20.553Z,29.25
2023-05-25T12:01:57.623Z,28.81
2023-05-25T12:04:25.390Z,28.39
2023-05-25T12:06:52.800Z,29.19
2023-05-25T12:09:23.503Z,27.85
2023-05-25T12:11:51.130Z,27.36
2023-05-25T12:14:18.463Z,28.18
2023-05-25T12:16:45.937Z,29.03
2023-05-25T12:19:13.680Z,27.20
2023-05-25T12:21:41.030Z,28.71
2023-05-25T12:24:09.909Z,28.57
2023-05-25T12:26:46.877Z,28.99
2023-05-25T12:29:14.137Z,28.65
2023-05-25T12:31:41.797Z,26.58
2023-05-25T12:34:10.109Z,28.56
2023-05-25T12:36:45.355Z,26.91
2023-05-25T12:39:13.402Z,27.82
2023-05-25T12:41:54.754Z,28.71
2023-05-25T12:44:23.940Z,28.75
2023-05-25T12:46:52.147Z,29.86
2023-05-25T12:49:32.481Z,27.24
2023-05-25T12:52:00.991Z,28.19
2023-05-25T12:54:42.245Z,27.31
2023-05-25T12:57:10.554Z,27.90
2023-05-25T12:59:38.142Z,27.67
2023-05-25T13:02:05.860Z,27.73
2023-05-25T13:04:34.046Z,26.86
2023-05-25T13:07:01.602Z,28.92
2023-05-25T13:09:28.929Z,29.09
2023-05-25T13:11:56.979Z,28.42
2023-05-25T13:14:24.723Z,28.57
2023-05-25T13:16:52.382Z,28.83
2023-05-25T13:19:20.504Z,28.98
2023-05-25T13:21:49.364Z,27.26
2023-05-25T13:24:16.754Z,28.32
2023-05-25T13:26:45.707Z,28.65
2023-05-25T13:29:14.310Z,26.72
2023-05-25T13:31:42.328Z,25.96
2023-05-25T13:34:09.855Z,27.18
2023-05-25T13:36:37.072Z,28.04
2023-05-25T13:39:05.416Z,27.82
2023-05-25T13:41:33.126Z,28.27
2023-05-25T13:44:00.462Z,28.54
2023-05-25T13:46:34.669Z,28.27
2023-05-25T13:49:02.898Z,28.53
2023-05-25T13:51:30.178Z,27.06
2023-05-25T13:53:57.387Z,27.49
2023-05-25T13:56:24.929Z,27.85
2023-05-25T13:58:52.247Z,26.92
2023-05-25T14:01:19.569Z,26.14
2023-05-25T14:03:47.446Z,27.39
2023-05-25T14:06:14.888Z,28.77
2023-05-25T14:08:42.158Z,27.91
2023-05-25T14:11:09.796Z,28.90
2023-05-25T14:13:37.146Z,28.78
2023-05-25T14:16:04.447Z,29.40
2023-05-25T14:18:32.172Z,29.57
2023-05-25T14:20:59.642Z,28.68
2023-05-25T14:23:26.921Z,28.47
2023-05-25T14:25:54.479Z,28.15
2023-05-25T14:28:21.748Z,28.36
2023-05-25T14:30:48.967Z,28.19
2023-05-25T14:33:17.356Z,28.31
2023-05-25T14:35:44.919Z,27.74
2023-05-25T14:38:12.497Z,28.00
2023-05-25T14:40:40.034Z,28.16
2023-05-25T14:43:07.355Z,27.52
2023-05-25T14:45:34.576Z,28.39
2023-05-25T14:48:15.306Z,26.74
2023-05-25T14:50:44.405Z,25.87
2023-05-25T14:53:12.160Z,27.64
2023-05-25T14:55:40.985Z,27.46
2023-05-25T14:58:08.335Z,28.47
2023-05-25T15:00:35.812Z,29.39
2023-05-25T15:03:03.135Z,28.69
2023-05-25T15:05:30.463Z,28.76
2023-05-25T15:07:59.043Z,27.61
2023-05-25T15:10:26.350Z,28.29
2023-05-25T15:12:53.628Z,27.37
2023-05-25T15:15:21.115Z,28.41
2023-05-25T15:17:48.344Z,28.37
2023-05-25T15:20:15.983Z,27.53
2023-05-25T15:22:43.507Z,28.87
2023-05-25T15:25:10.825Z,26.90
2023-05-25T15:27:38.112Z,27.94
2023-05-25T15:30:07.342Z,28.51
2023-05-25T15:32:34.758Z,28.69
2023-05-25T15:35:02.003Z,28.17
2023-05-25T15:37:29.885Z,28.19
2023-05-25T15:39:57.239Z,27.97
2023-05-25T15:42:24.572Z,28.18
2023-05-25T15:44:52.104Z,28.67
2023-05-25T15:47:19.428Z,28.16
2023-05-25T15:49:46.727Z,28.85
2023-05-25T15:52:14.393Z,28.30
2023-05-25T15:54:41.665Z,28.53
2023-05-25T15:57:08.909Z,28.22
2023-05-25T15:59:36.566Z,28.65
2023-05-25T16:02:03.861Z,28.51
2023-05-25T16:04:31.407Z,28.23
2023-05-25T16:06:59.527Z,28.49
2023-05-25T16:09:28.494Z,28.54
2023-05-25T16:11:56.004Z,27.48
2023-05-25T16:14:23.350Z,27.82
2023-05-25T16:16:51.574Z,27.82
2023-05-25T16:19:19.215Z,27.75
2023-05-25T16:21:46.789Z,26.47
2023-05-25T16:24:14.091Z,26.78
2023-05-25T16:26:41.599Z,27.42
2023-05-25T16:29:08.892Z,26.71
2023-05-25T16:31:36.247Z,27.33
2023-05-25T16:34:04.388Z,27.42
2023-05-25T16:36:31.650Z,27.02
2023-05-25T16:38:58.916Z,27.00
2023-05-25T16:41:27.490Z,27.48
2023-05-25T16:43:54.793Z,27.29
2023-05-25T16:46:22.163Z,27.22
2023-05-25T16:48:49.668Z,27.78
2023-05-25T16:51:17.047Z,27.31
2023-05-25T16:53:45.432Z,26.81
2023-05-25T16:56:13.067Z,26.27
2023-05-25T16:58:40.410Z,27.28
2023-05-25T17:01:07.763Z,27.65
2023-05-25T17:03:35.696Z,27.84
2023-05-25T17:06:03.097Z,27.02
2023-05-25T17:08:30.612Z,27.03
2023-05-25T17:10:59.159Z,26.52
2023-05-25T17:13:26.391Z,26.49
2023-05-25T17:15:53.627Z,26.41
2023-05-25T17:18:21.865Z,25.94
2023-05-25T17:20:49.136Z,26.87
2023-05-25T17:23:16.928Z,26.94
2023-05-25T17:25:45.074Z,27.22
2023-05-25T17:28:12.532Z,27.00
2023-05-25T17:30:39.826Z,26.91
2023-05-25T17:33:07.429Z,26.61
2023-05-25T17:35:34.739Z,26.21
2023-05-25T17:38:02.086Z,26.43
2023-05-25T17:40:29.695Z,26.60
2023-05-25T17:42:57.097Z,27.13
2023-05-25T17:45:24.460Z,26.58
2023-05-25T17:47:52.086Z,27.08
2023-05-25T17:50:19.374Z,26.85
2023-05-25T17:52:46.805Z,27.01
2023-05-25T17:55:14.523Z,27.07
2023-05-25T17:57:41.761Z,27.60
2023-05-25T18:00:09.205Z,27.14
2023-05-25T18:02:39.984Z,27.30
2023-05-25T18:05:07.961Z,26.71
2023-05-25T18:07:35.568Z,26.72
2023-05-25T18:10:02.820Z,26.56
2023-05-25T18:12:30.375Z,26.56
2023-05-25T18:14:57.603Z,26.84
2023-05-25T18:17:24.845Z,26.88
2023-05-25T18:19:52.564Z,26.95
2023-05-25T18:22:19.888Z,26.79
2023-05-25T18:24:47.321Z,27.10
2023-05-25T18:27:14.934Z,25.78
2023-05-25T18:29:42.303Z,25.69
2023-05-25T18:32:09.579Z,26.99
2023-05-25T18:34:37.182Z,27.14
2023-05-25T18:37:04.500Z,27.28
2023-05-25T18:39:31.825Z,26.95
2023-05-25T18:41:59.365Z,27.09
2023-05-25T18:44:27.821Z,26.76
2023-05-25T18:46:56.719Z,26.72
2023-05-25T18:49:24.649Z,26.30
2023-05-25T18:51:51.952Z,26.32
2023-05-25T18:54:19.147Z,26.45
2023-05-25T18:56:46.772Z,26.46
2023-05-25T18:59:14.285Z,26.23
2023-05-25T19:01:41.578Z,26.02
2023-05-25T19:04:09.276Z,25.58
2023-05-25T19:06:37.888Z,24.75
2023-05-25T19:09:05.121Z,24.80
2023-05-25T19:11:32.783Z,25.09
2023-05-25T19:14:00.158Z,25.06
2023-05-25T19:16:27.483Z,25.28
2023-05-25T19:18:55.122Z,25.77
2023-05-25T19:21:23.102Z,25.85
2023-05-25T19:23:50.376Z,25.77
2023-05-25T19:26:17.965Z,25.37
2023-05-25T19:28:45.170Z,25.45
2023-05-25T19:31:12.542Z,25.27
2023-05-25T19:33:40.224Z,25.18
2023-05-25T19:36:07.640Z,25.54
2023-05-25T19:38:41.199Z,25.86
2023-05-25T19:41:09.596Z,25.19
2023-05-25T19:43:37.443Z,24.04
2023-05-25T19:46:04.798Z,24.31
2023-05-25T19:48:32.327Z,24.41
2023-05-25T19:51:01.052Z,24.75
2023-05-25T19:53:28.981Z,23.56
2023-05-25T19:55:56.527Z,23.10
2023-05-25T19:58:23.773Z,23.35
2023-05-25T20:00:52.139Z,23.38
2023-05-25T20:03:21.045Z,23.66
2023-05-25T20:05:48.425Z,23.12
2023-05-25T20:08:15.713Z,23.19
2023-05-25T20:10:44.995Z,23.94
2023-05-25T20:14:02.686Z,24.19
2023-05-25T20:16:30.676Z,24.29
2023-05-25T20:18:58.027Z,23.91
2023-05-25T20:21:25.857Z,24.43
2023-05-25T20:23:53.572Z,24.35
2023-05-25T20:26:20.875Z,24.18
2023-05-25T20:28:48.142Z,24.21
2023-05-25T20:31:15.830Z,24.33
2023-05-25T20:33:43.320Z,24.24
2023-05-25T20:36:10.680Z,23.85
2023-05-25T20:38:38.183Z,24.44
2023-05-25T20:41:05.634Z,24.34
2023-05-25T20:43:33.304Z,23.71
2023-05-25T20:46:01.088Z,24.26
2023-05-25T20:48:28.395Z,24.29
2023-05-25T20:50:55.650Z,24.21
2023-05-25T20:53:23.118Z,23.87
2023-05-25T20:55:51.413Z,22.60
2023-05-25T20:58:18.614Z,23.56
2023-05-25T21:00:49.815Z,24.04
2023-05-25T21:03:17.217Z,23.85
2023-05-25T21:05:45.335Z,23.17
2023-05-25T21:08:13.119Z,23.63
2023-05-25T21:10:40.646Z,22.18
2023-05-25T21:13:09.381Z,22.18
2023-05-25T21:15:36.895Z,21.37
2023-05-25T21:18:05.571Z,20.83
2023-05-25T21:20:33.188Z,20.19
2023-05-25T21:23:02.474Z,20.90
2023-05-25T21:25:29.971Z,20.29
2023-05-25T21:27:57.450Z,21.04
2023-05-25T21:30:25.449Z,20.91
2023-05-25T21:32:52.739Z,20.93
2023-05-25T21:35:19.956Z,21.14
2023-05-25T21:37:47.463Z,21.56
2023-05-25T21:40:14.697Z,20.73
2023-05-25T21:42:41.845Z,20.60
2023-05-25T21:45:09.515Z,20.22
2023-05-25T21:47:36.683Z,21.09
2023-05-25T21:50:03.991Z,21.96
2023-05-25T21:52:31.428Z,22.36
2023-05-25T21:54:58.632Z,21.94
2023-05-25T21:57:26.056Z,21.14
2023-05-25T21:59:53.686Z,20.46
2023-05-25T22:02:21.172Z,21.04
2023-05-25T22:04:48.849Z,20.32
2023-05-25T22:07:16.418Z,20.98
2023-05-25T22:09:43.848Z,20.42
2023-05-25T22:12:12.237Z,20.87
2023-05-25T22:14:39.438Z,21.14
2023-05-25T22:17:07.166Z,23.07
2023-05-25T22:19:34.964Z,22.60
2023-05-25T22:22:02.136Z,23.26
2023-05-25T22:24:29.352Z,23.70
2023-05-25T22:26:57.038Z,22.93
2023-05-25T22:29:24.270Z,23.47
2023-05-25T22:31:51.739Z,22.10
2023-05-25T22:34:19.465Z,22.24
2023-05-25T22:36:46.704Z,21.80
2023-05-25T22:39:13.887Z,21.70
2023-05-25T22:41:41.378Z,22.24
2023-05-25T22:44:08.553Z,20.77
2023-05-25T22:46:35.904Z,20.73
2023-05-25T22:49:03.431Z,20.84
2023-05-25T22:51:30.700Z,22.21
2023-05-25T22:53:57.833Z,22.14
2023-05-25T22:56:27.324Z,22.21
2023-05-25T22:58:54.565Z,21.63
2023-05-25T23:01:21.854Z,20.49
2023-05-25T23:03:49.520Z,20.04
2023-05-25T23:06:16.834Z,18.94
2023-05-25T23:08:45.079Z,19.03
2023-05-25T23:11:12.542Z,22.25
2023-05-25T23:13:41.508Z,22.72
2023-05-25T23:16:09.238Z,23.03
2023-05-25T23:18:36.711Z,23.17
2023-05-25T23:21:03.988Z,23.15
2023-05-25T23:23:31.224Z,22.64
2023-05-25T23:25:58.738Z,22.76
2023-05-25T23:28:26.106Z,22.75
2023-05-25T23:30:53.335Z,22.18
2023-05-25T23:33:20.850Z,20.02
2023-05-25T23:35:48.044Z,20.48
2023-05-25T23:38:15.645Z,19.21
2023-05-25T23:40:43.156Z,19.51
2023-05-25T23:43:10.682Z,18.17
2023-05-25T23:45:37.919Z,18.69
2023-05-25T23:48:05.786Z,21.82
2023-05-25T23:50:33.035Z,20.99
2023-05-25T23:53:00.402Z,19.32
2023-05-25T23:55:28.091Z,19.12
2023-05-25T23:57:55.338Z,18.37
